createdAt,value
2023-02-11T00:04:43.147Z,9.90
2023-02-11T00:09:53.149Z,8.10
2023-02-11T00:15:03.024Z,8.60
2023-02-11T00:20:14.239Z,8.10
2023-02-11T00:25:23.966Z,10.00
2023-02-11T00:30:34.104Z,8.80
2023-02-11T00:35:43.903Z,7.10
2023-02-11T00:40:53.840Z,7.70
2023-02-11T00:46:04.156Z,11.90
2023-02-11T00:51:14.367Z,8.70
2023-02-11T00:56:24.178Z,8.20
2023-02-11T01:01:34.986Z,7.70
2023-02-11T01:06:44.746Z,8.60
2023-02-11T01:11:54.773Z,8.00
2023-02-11T01:17:05.871Z,11.00
2023-02-11T01:22:15.627Z,10.20
2023-02-11T01:27:25.139Z,9.70
2023-02-11T01:32:35.136Z,8.20
2023-02-11T01:37:44.798Z,9.40
2023-02-11T01:42:54.478Z,9.90
2023-02-11T01:48:05.362Z,11.70
2023-02-11T01:53:34.118Z,8.20
2023-02-11T01:58:49.466Z,9.10
2023-02-11T02:04:04.777Z,6.40
2023-02-11T02:09:20.669Z,8.10
2023-02-11T02:14:30.570Z,9.10
2023-02-11T02:20:28.523Z,8.10
2023-02-11T02:26:16.886Z,9.50
2023-02-11T02:32:00.856Z,9.60
2023-02-11T02:37:19.291Z,12.90
2023-02-11T02:42:30.243Z,10.40
2023-02-11T02:47:39.875Z,7.90
2023-02-11T02:52:59.669Z,11.60
2023-02-11T02:58:35.548Z,9.50
2023-02-11T03:03:56.726Z,10.90
2023-02-11T03:09:15.324Z,9.60
2023-02-11T03:14:28.295Z,10.90
2023-02-11T03:19:41.622Z,10.20
2023-02-11T03:24:52.455Z,7.70
2023-02-11T03:30:14.787Z,9.20
2023-02-11T03:35:30.794Z,11.70
2023-02-11T03:40:46.087Z,7.80
2023-02-11T03:45:57.924Z,6.20
2023-02-11T03:51:12.531Z,10.20
2023-02-11T03:56:26.221Z,7.40
2023-02-11T04:01:36.180Z,8.30
2023-02-11T04:06:46.144Z,9.80
2023-02-11T04:11:55.815Z,8.00
2023-02-11T04:17:05.833Z,8.10
2023-02-11T04:22:15.890Z,10.60
2023-02-11T04:27:25.722Z,7.10
2023-02-11T04:32:35.459Z,6.60
2023-02-11T04:37:45.025Z,8.90
2023-02-11T04:42:54.724Z,16.00
2023-02-11T04:48:05.080Z,10.30
2023-02-11T04:53:14.855Z,13.20
2023-02-11T04:58:25.074Z,8.70
2023-02-11T05:03:34.767Z,11.20
2023-02-11T05:08:44.718Z,11.30
2023-02-11T05:13:54.868Z,10.10
2023-02-11T05:19:04.510Z,10.00
2023-02-11T05:24:14.626Z,8.90
2023-02-11T05:29:24.161Z,11.10
2023-02-11T05:34:34.016Z,10.60
2023-02-11T05:39:43.774Z,11.70
2023-02-11T05:44:53.569Z,8.80
2023-02-11T05:50:03.450Z,9.00
2023-02-11T05:55:13.724Z,11.90
2023-02-11T06:00:24.343Z,7.50
2023-02-11T06:05:34.118Z,10.30
2023-02-11T06:10:46.000Z,9.70
2023-02-11T06:16:04.506Z,11.20
2023-02-11T06:21:15.322Z,9.40
2023-02-11T06:26:26.604Z,6.90
2023-02-11T06:31:36.486Z,8.50
2023-02-11T06:36:46.174Z,8.70
2023-02-11T06:41:56.014Z,7.50
2023-02-11T06:47:05.588Z,11.10
2023-02-11T06:52:15.439Z,8.20
2023-02-11T06:57:25.135Z,9.40
2023-02-11T07:02:34.884Z,10.00
2023-02-11T07:07:44.569Z,10.00
2023-02-11T07:12:57.681Z,8.30
2023-02-11T07:18:09.952Z,10.30
2023-02-11T07:23:19.838Z,9.50
2023-02-11T07:28:29.570Z,11.30
2023-02-11T07:33:40.006Z,10.60
2023-02-11T07:38:50.260Z,10.20
2023-02-11T07:44:00.584Z,10.40
2023-02-11T07:49:10.355Z,12.10
2023-02-11T07:54:20.047Z,9.30
2023-02-11T07:59:29.956Z,9.10
2023-02-11T08:04:40.123Z,8.20
2023-02-11T08:09:52.486Z,10.10
2023-02-11T08:15:02.144Z,10.70
2023-02-11T08:20:13.869Z,11.90
2023-02-11T08:25:23.488Z,10.50
2023-02-11T08:30:33.231Z,9.80
2023-02-11T08:35:43.010Z,7.50
2023-02-11T08:40:53.130Z,9.50
2023-02-11T08:46:03.506Z,10.30
2023-02-11T08:51:17.290Z,7.40
2023-02-11T08:56:28.238Z,6.20
2023-02-11T09:01:38.107Z,5.00
2023-02-11T09:06:48.048Z,6.40
2023-02-11T09:11:57.881Z,7.00
2023-02-11T09:17:07.855Z,10.30
2023-02-11T09:22:18.027Z,9.20
2023-02-11T09:27:27.838Z,11.20
2023-02-11T09:32:37.682Z,7.00
2023-02-11T09:37:47.590Z,4.80
2023-02-11T09:43:04.256Z,7.50
2023-02-11T09:48:22.412Z,10.40
2023-02-11T09:53:38.426Z,8.30
2023-02-11T09:58:49.317Z,8.70
2023-02-11T10:04:09.283Z,11.90
2023-02-11T10:10:04.444Z,6.80
2023-02-11T10:15:33.625Z,7.60
2023-02-11T10:20:53.346Z,10.30
2023-02-11T10:26:04.335Z,5.80
2023-02-11T10:31:19.731Z,7.20
2023-02-11T10:36:35.559Z,7.60
2023-02-11T10:41:49.723Z,7.30
2023-02-11T10:47:04.805Z,8.30
2023-02-11T10:52:26.193Z,7.50
2023-02-11T10:57:43.058Z,6.80
2023-02-11T11:03:00.590Z,4.90
2023-02-11T11:08:13.604Z,6.90
2023-02-11T11:13:33.948Z,6.10
2023-02-11T11:18:45.070Z,6.40
2023-02-11T11:24:02.493Z,7.10
2023-02-11T11:29:19.584Z,5.70
2023-02-11T11:34:35.126Z,7.40
2023-02-11T11:39:50.377Z,5.80
2023-02-11T11:45:20.854Z,5.20
2023-02-11T11:50:36.865Z,4.70
2023-02-11T11:56:02.410Z,3.60
2023-02-11T12:01:36.869Z,5.90
2023-02-11T12:07:02.573Z,6.90
2023-02-11T12:12:37.628Z,6.60
2023-02-11T12:18:09.587Z,6.60
2023-02-11T12:23:40.477Z,4.70
2023-02-11T12:29:08.094Z,5.20
2023-02-11T12:34:59.665Z,7.20
2023-02-11T12:40:22.702Z,6.40
2023-02-11T12:45:48.084Z,4.80
2023-02-11T12:51:07.813Z,6.70
2023-02-11T12:56:25.144Z,4.90
2023-02-11T13:01:44.082Z,5.30
2023-02-11T13:07:02.991Z,6.10
2023-02-11T13:12:33.968Z,2.30
2023-02-11T13:17:56.412Z,4.00
2023-02-11T13:23:19.994Z,4.80
2023-02-11T13:28:44.408Z,4.00
2023-02-11T13:33:54.842Z,3.70
2023-02-11T13:39:21.029Z,4.60
2023-02-11T13:44:35.517Z,3.10
2023-02-11T13:49:54.641Z,2.90
2023-02-11T13:55:16.857Z,2.90
2023-02-11T14:00:54.832Z,2.90
2023-02-11T14:06:39.571Z,2.50
2023-02-11T14:11:57.517Z,3.60
2023-02-11T14:17:35.922Z,2.90
2023-02-11T14:22:54.729Z,2.50
2023-02-11T14:28:16.877Z,2.40
2023-02-11T14:34:02.269Z,7.60
2023-02-11T14:39:24.440Z,4.90
2023-02-11T14:44:37.407Z,3.20
2023-02-11T14:49:48.446Z,2.50
2023-02-11T14:55:17.856Z,3.50
2023-02-11T15:00:28.053Z,4.10
2023-02-11T15:05:38.348Z,2.60
2023-02-11T15:10:49.215Z,3.90
2023-02-11T15:16:05.994Z,1.90
2023-02-11T15:21:21.959Z,2.70
2023-02-11T15:26:32.359Z,3.80
2023-02-11T15:31:43.859Z,2.90
2023-02-11T15:36:54.475Z,2.80
2023-02-11T15:42:25.730Z,2.70
2023-02-11T15:47:35.531Z,3.90
2023-02-11T15:52:50.199Z,2.80
2023-02-11T15:58:03.183Z,2.60
2023-02-11T16:03:24.603Z,11.70
2023-02-11T16:08:35.770Z,4.50
2023-02-11T16:13:50.889Z,3.80
2023-02-11T16:19:06.069Z,3.40
2023-02-11T16:24:28.299Z,2.10
2023-02-11T16:29:40.818Z,2.40
2023-02-11T16:34:51.377Z,2.60
2023-02-11T16:40:01.383Z,1.80
2023-02-11T16:45:13.585Z,1.70
2023-02-11T16:50:28.158Z,1.60
2023-02-11T16:55:38.874Z,1.40
2023-02-11T17:00:50.774Z,1.50
2023-02-11T17:06:03.387Z,1.30
2023-02-11T17:11:16.974Z,1.70
2023-02-11T17:16:30.271Z,1.70
2023-02-11T17:21:42.234Z,1.90
2023-02-11T17:26:52.573Z,1.60
2023-02-11T17:32:02.481Z,1.50
2023-02-11T17:37:12.548Z,1.80
2023-02-11T17:42:22.851Z,1.30
2023-02-11T17:47:33.031Z,1.30
2023-02-11T17:52:42.965Z,0.90
2023-02-11T17:57:53.096Z,1.80
2023-02-11T18:03:03.766Z,1.30
2023-02-11T18:08:13.522Z,1.40
2023-02-11T18:13:23.311Z,1.60
2023-02-11T18:18:33.749Z,1.60
2023-02-11T18:23:44.503Z,1.50
2023-02-11T18:28:55.192Z,1.40
2023-02-11T18:34:06.252Z,1.50
2023-02-11T18:39:16.880Z,2.50
2023-02-11T18:44:27.119Z,2.20
2023-02-11T18:49:37.231Z,1.60
2023-02-11T18:54:47.549Z,1.70
2023-02-11T18:59:57.150Z,1.30
2023-02-11T19:05:07.630Z,0.60
2023-02-11T19:10:17.870Z,0.90
2023-02-11T19:15:27.648Z,0.80
2023-02-11T19:20:40.422Z,1.60
2023-02-11T19:25:53.994Z,1.10
2023-02-11T19:31:10.926Z,2.20
2023-02-11T19:36:21.772Z,1.00
2023-02-11T19:41:32.461Z,0.80
2023-02-11T19:46:43.518Z,1.20
2023-02-11T19:51:54.339Z,0.70
2023-02-11T19:57:04.098Z,2.40
2023-02-11T20:02:15.218Z,3.30
2023-02-11T20:07:24.970Z,1.90
2023-02-11T20:12:35.894Z,2.40
2023-02-11T20:17:45.856Z,1.50
2023-02-11T20:22:56.387Z,1.10
2023-02-11T20:28:06.397Z,1.50
2023-02-11T20:33:16.531Z,1.40
2023-02-11T20:38:26.483Z,1.20
2023-02-11T20:43:38.021Z,1.90
2023-02-11T20:48:48.083Z,2.90
2023-02-11T20:53:58.757Z,3.60
2023-02-11T20:59:08.970Z,4.30
2023-02-11T21:04:22.194Z,3.80
2023-02-11T21:09:35.305Z,3.20
2023-02-11T21:14:45.354Z,3.60
2023-02-11T21:19:55.250Z,3.90
2023-02-11T21:25:06.372Z,2.70
2023-02-11T21:30:17.721Z,2.30
2023-02-11T21:35:27.753Z,3.70
2023-02-11T21:40:37.683Z,2.30
2023-02-11T21:45:51.455Z,3.90
2023-02-11T21:51:02.575Z,3.60
2023-02-11T21:56:17.219Z,3.90
2023-02-11T22:01:29.916Z,2.90
2023-02-11T22:06:40.247Z,3.00
2023-02-11T22:11:50.558Z,0.80
2023-02-11T22:17:00.401Z,0.60
2023-02-11T22:22:10.162Z,0.60
2023-02-11T22:27:20.533Z,0.60
2023-02-11T22:32:30.378Z,0.70
2023-02-11T22:37:40.288Z,0.40
2023-02-11T22:42:49.941Z,0.70
2023-02-11T22:48:00.342Z,0.70
2023-02-11T22:53:10.352Z,1.00
2023-02-11T22:58:20.384Z,1.10
2023-02-11T23:03:31.517Z,0.80
2023-02-11T23:08:43.649Z,0.60
2023-02-11T23:13:56.132Z,0.50
2023-02-11T23:19:09.185Z,0.50
2023-02-11T23:24:21.212Z,0.40
2023-02-11T23:29:30.794Z,0.40
2023-02-11T23:34:40.434Z,0.40
2023-02-11T23:39:50.392Z,0.30
2023-02-11T23:45:00.375Z,0.30
2023-02-11T23:50:12.390Z,0.60
2023-02-11T23:55:22.159Z,0.30
